Time;durP1;ratioP1;P1;durP2;ratioP2;P2;SDS_P1;SDS_P2;PMS_P1;PMS_P2;Temp;Humidity;BMP_temperature;BMP_pressure;BME280_temperature;BME280_humidity;BME280_pressure;Samples;Min_cycle;Max_cycle;Signal;HPM_P1;HPM_P2
2022/03/29 00:00:38;;;;;;;7.50;0.77;;;22.10;43.00;;;;;;5048663;28;20033;-39
2022/03/29 00:03:08;;;;;;;3.80;0.98;;;22.20;42.90;;;;;;5082994;28;20762;-39
2022/03/29 00:05:35;;;;;;;4.35;1.10;;;22.20;42.80;;;;;;5065895;28;20030;-39
2022/03/29 00:08:02;;;;;;;4.22;0.90;;;22.20;42.80;;;;;;5055140;28;20029;-39
2022/03/29 00:10:28;;;;;;;3.30;1.00;;;22.20;42.70;;;;;;5059002;28;20489;-39
2022/03/29 00:12:54;;;;;;;6.05;0.90;;;22.20;42.60;;;;;;5053929;28;20060;-40
2022/03/29 00:15:21;;;;;;;2.45;0.75;;;22.20;42.50;;;;;;5055578;28;20079;-39
2022/03/29 00:17:47;;;;;;;1.02;0.47;;;22.20;42.70;;;;;;5056269;28;20043;-39
2022/03/29 00:20:16;;;;;;;3.00;0.70;;;22.20;42.60;;;;;;5051888;28;20045;-39
2022/03/29 00:22:43;;;;;;;5.38;0.80;;;22.20;42.60;;;;;;5053247;28;20474;-39
2022/03/29 00:25:09;;;;;;;2.97;0.70;;;22.20;42.60;;;;;;5055574;28;20040;-39
2022/03/29 00:27:36;;;;;;;2.67;0.90;;;22.20;42.50;;;;;;5051902;28;20100;-40
2022/03/29 00:30:04;;;;;;;2.17;0.75;;;22.20;42.50;;;;;;5048456;28;20512;-40
2022/03/29 00:32:30;;;;;;;2.83;0.63;;;22.20;42.60;;;;;;5056043;28;20064;-40
2022/03/29 00:34:56;;;;;;;1.73;0.70;;;22.20;42.60;;;;;;5051910;28;20028;-40
2022/03/29 00:37:22;;;;;;;1.73;0.63;;;22.20;42.60;;;;;;5053949;28;20111;-40
2022/03/29 00:39:48;;;;;;;1.85;0.70;;;22.20;42.60;;;;;;5054454;28;20025;-40
2022/03/29 00:42:14;;;;;;;3.25;0.90;;;22.20;42.60;;;;;;5060092;28;20064;-39
2022/03/29 00:44:40;;;;;;;1.25;0.65;;;22.20;42.60;;;;;;5060214;28;20029;-39
2022/03/29 00:47:07;;;;;;;1.52;0.60;;;22.20;42.60;;;;;;5056690;28;20044;-39
2022/03/29 00:49:33;;;;;;;1.75;0.68;;;22.20;42.80;;;;;;5059671;28;20029;-39
2022/03/29 00:52:01;;;;;;;1.38;0.60;;;22.20;42.80;;;;;;5055940;28;20033;-39
2022/03/29 00:54:32;;;;;;;2.65;0.90;;;22.20;42.80;;;;;;5060834;28;20021;-39
2022/03/29 00:57:02;;;;;;;2.70;0.82;;;22.20;42.90;;;;;;5055845;28;20060;-40
2022/03/29 00:59:28;;;;;;;1.33;0.68;;;22.20;42.90;;;;;;5058500;28;20021;-39
2022/03/29 01:01:57;;;;;;;1.50;0.60;;;22.20;42.90;;;;;;5051375;28;20494;-40
2022/03/29 01:04:23;;;;;;;1.20;0.80;;;22.20;43.00;;;;;;5057035;28;20036;-39
2022/03/29 01:06:50;;;;;;;1.02;0.70;;;22.20;42.90;;;;;;5056522;28;20043;-39
2022/03/29 01:09:16;;;;;;;0.77;0.60;;;22.20;42.90;;;;;;5058924;28;20078;-39
2022/03/29 01:11:42;;;;;;;1.23;0.80;;;22.20;43.00;;;;;;5059623;28;20469;-39
2022/03/29 01:14:09;;;;;;;1.85;0.80;;;22.10;43.00;;;;;;5049821;28;20054;-39
2022/03/29 01:19:23;;;;;;;1.27;1.05;;;22.20;43.20;;;;;;5053629;28;20091;-39
2022/03/29 01:21:59;;;;;;;2.15;0.90;;;22.20;43.20;;;;;;5059463;28;20029;-39
2022/03/29 01:24:25;;;;;;;1.30;1.00;;;22.20;43.20;;;;;;5061198;28;20056;-40
2022/03/29 01:26:52;;;;;;;1.83;1.00;;;22.20;43.30;;;;;;5060339;28;20028;-39
2022/03/29 01:29:22;;;;;;;2.70;1.60;;;22.20;43.30;;;;;;5055988;28;20052;-39
2022/03/29 01:31:51;;;;;;;2.08;1.88;;;22.20;43.10;;;;;;5061686;28;20029;-40
2022/03/29 01:34:20;;;;;;;3.53;2.20;;;22.20;43.50;;;;;;5055163;28;20033;-40
2022/03/29 01:36:47;;;;;;;2.45;1.95;;;22.20;43.40;;;;;;5059901;28;20642;-39
2022/03/29 01:39:13;;;;;;;2.77;2.43;;;22.20;43.30;;;;;;5053336;28;20033;-40
2022/03/29 01:41:39;;;;;;;3.70;2.58;;;22.20;43.40;;;;;;5061976;28;20289;-38
2022/03/29 01:44:06;;;;;;;2.50;1.98;;;22.20;43.50;;;;;;5056100;28;20045;-40
2022/03/29 01:46:33;;;;;;;4.57;2.10;;;22.20;43.40;;;;;;5053276;28;20565;-39
2022/03/29 01:49:00;;;;;;;3.45;2.53;;;22.20;43.40;;;;;;5053163;28;20060;-40
2022/03/29 01:51:26;;;;;;;3.72;2.90;;;22.20;43.40;;;;;;5051277;28;20037;-38
2022/03/29 01:53:56;;;;;;;3.30;2.58;;;22.20;43.40;;;;;;5047722;28;20055;-39
2022/03/29 01:56:23;;;;;;;2.85;2.55;;;22.20;43.50;;;;;;5051334;28;20129;-39
2022/03/29 01:58:49;;;;;;;2.92;2.47;;;22.20;43.60;;;;;;5049251;28;20060;-43
2022/03/29 02:01:16;;;;;;;3.05;2.65;;;22.20;44.20;;;;;;5049184;28;20170;-42
2022/03/29 02:03:42;;;;;;;2.78;2.35;;;22.20;43.60;;;;;;5049576;28;20037;-41
2022/03/29 02:06:08;;;;;;;2.60;2.20;;;22.20;43.30;;;;;;5054372;28;20040;-42
2022/03/29 02:08:35;;;;;;;2.78;2.28;;;22.20;43.40;;;;;;5053008;28;20032;-41
2022/03/29 02:11:01;;;;;;;4.82;2.45;;;22.20;43.10;;;;;;5053077;28;20046;-45
2022/03/29 02:13:27;;;;;;;5.10;3.20;;;22.20;43.10;;;;;;5050988;28;20481;-44
2022/03/29 02:15:53;;;;;;;5.60;3.78;;;22.20;43.50;;;;;;5055426;28;20060;-44
2022/03/29 02:18:19;;;;;;;6.78;4.18;;;22.20;43.60;;;;;;5054256;28;20033;-46
2022/03/29 02:20:47;;;;;;;9.07;4.43;;;22.20;43.70;;;;;;5052213;28;20025;-44
2022/03/29 02:23:15;;;;;;;4.85;3.88;;;22.20;43.70;;;;;;5052606;28;20101;-43
2022/03/29 02:26:04;;;;;;;6.55;4.40;;;22.20;43.60;;;;;;5052885;28;20087;-45
2022/03/29 02:28:30;;;;;;;7.57;4.60;;;22.20;43.70;;;;;;5051820;28;20069;-46
2022/03/29 02:30:56;;;;;;;6.72;4.55;;;22.30;43.70;;;;;;5051370;28;20037;-46
2022/03/29 02:33:22;;;;;;;5.88;5.28;;;22.30;43.50;;;;;;5054650;28;20073;-45
2022/03/29 02:35:48;;;;;;;7.75;5.78;;;22.30;43.60;;;;;;5050535;28;20052;-49
2022/03/29 02:38:17;;;;;;;9.82;6.28;;;22.30;43.70;;;;;;5049753;28;20057;-42
2022/03/29 02:40:44;;;;;;;8.52;6.00;;;22.30;43.80;;;;;;5052682;28;20052;-46
2022/03/29 02:43:10;;;;;;;7.57;5.53;;;22.30;43.70;;;;;;5052671;28;20033;-44
2022/03/29 02:45:37;;;;;;;8.98;6.00;;;22.30;43.50;;;;;;5059609;28;20078;-44
2022/03/29 02:48:03;;;;;;;9.00;6.65;;;22.30;43.50;;;;;;5051322;28;20056;-46
2022/03/29 02:50:29;;;;;;;8.50;6.10;;;22.30;43.50;;;;;;5060229;28;20025;-46
2022/03/29 02:52:58;;;;;;;10.32;6.78;;;22.30;43.60;;;;;;5056940;28;20029;-45
2022/03/29 02:55:25;;;;;;;27.65;8.43;;;22.30;43.60;;;;;;5060672;28;20044;-42
2022/03/29 02:57:52;;;;;;;19.35;8.50;;;22.30;45.10;;;;;;5043388;28;20065;-43
2022/03/29 03:00:18;;;;;;;15.68;7.60;;;22.30;45.70;;;;;;5059542;28;20087;-42
2022/03/29 03:02:45;;;;;;;17.33;7.85;;;22.30;46.20;;;;;;5058695;28;20116;-43
2022/03/29 03:05:11;;;;;;;14.90;7.18;;;22.30;46.80;;;;;;5056434;28;20180;-42
2022/03/29 03:07:39;;;;;;;12.60;7.53;;;22.30;46.60;;;;;;5061564;28;20037;-41
2022/03/29 03:10:06;;;;;;;14.77;6.90;;;22.40;46.50;;;;;;5062458;28;20501;-42
2022/03/29 03:12:39;;;;;;;12.20;7.25;;;22.40;46.60;;;;;;5058480;28;20033;-41
2022/03/29 03:15:06;;;;;;;16.73;7.63;;;22.40;46.40;;;;;;5056580;28;20037;-44
2022/03/29 03:17:32;;;;;;;;;;;22.40;46.30;;;;;;5062526;28;20045;-41
2022/03/29 03:19:58;;;;;;;16.58;7.82;;;22.40;46.20;;;;;;5061929;28;19983;-41
2022/03/29 03:22:25;;;;;;;15.43;7.75;;;22.40;46.10;;;;;;5062024;28;20029;-40
2022/03/29 03:24:51;;;;;;;14.60;6.72;;;22.40;46.00;;;;;;5062672;28;20501;-40
2022/03/29 03:27:18;;;;;;;17.17;7.20;;;22.40;45.80;;;;;;5061971;28;20029;-41
2022/03/29 03:29:44;;;;;;;13.75;7.47;;;22.40;45.70;;;;;;5059388;28;20029;-41
2022/03/29 03:32:11;;;;;;;12.88;7.15;;;22.40;45.60;;;;;;5062331;28;20033;-41
2022/03/29 03:34:37;;;;;;;12.45;7.47;;;22.40;46.20;;;;;;5075331;28;20032;-40
2022/03/29 03:37:03;;;;;;;14.02;7.18;;;22.40;45.40;;;;;;5062582;28;20037;-41
2022/03/29 03:39:34;;;;;;;10.87;6.90;;;22.40;45.40;;;;;;5061758;28;20022;-40
2022/03/29 03:42:01;;;;;;;10.27;6.63;;;22.40;45.30;;;;;;5062697;28;20029;-41
2022/03/29 03:44:27;;;;;;;12.32;6.82;;;22.40;45.20;;;;;;5062487;28;20029;-42
2022/03/29 03:46:53;;;;;;;11.10;6.95;;;22.40;45.20;;;;;;5062496;28;20057;-42
2022/03/29 03:49:20;;;;;;;11.50;6.43;;;22.30;45.00;;;;;;5060071;28;20630;-41
2022/03/29 03:51:46;;;;;;;11.33;6.57;;;22.30;45.00;;;;;;5060675;28;20033;-42
2022/03/29 03:54:12;;;;;;;14.00;6.90;;;22.30;45.10;;;;;;5060205;28;20282;-41
2022/03/29 03:56:39;;;;;;;12.23;6.80;;;22.30;45.10;;;;;;5062255;28;20048;-41
2022/03/29 03:59:05;;;;;;;10.57;6.77;;;22.30;45.00;;;;;;5062483;28;20055;-43
2022/03/29 04:01:33;;;;;;;11.80;6.53;;;22.30;45.00;;;;;;5062324;28;20280;-42
2022/03/29 04:03:59;;;;;;;13.95;7.35;;;22.30;45.00;;;;;;5060188;28;20025;-42
2022/03/29 04:06:25;;;;;;;12.45;6.53;;;22.30;45.00;;;;;;5061545;28;20029;-39
2022/03/29 04:08:51;;;;;;;9.52;6.25;;;22.30;44.80;;;;;;5061566;28;20037;-39
2022/03/29 04:11:19;;;;;;;11.10;6.70;;;22.30;44.80;;;;;;5060971;28;20089;-41
2022/03/29 04:13:45;;;;;;;;;;;22.30;44.80;;;;;;5051601;28;20065;-41
2022/03/29 04:16:11;;;;;;;10.02;6.10;;;22.30;45.00;;;;;;5039924;28;19924;-40
2022/03/29 04:18:37;;;;;;;12.82;6.50;;;22.30;45.00;;;;;;5044262;28;20044;-39
2022/03/29 04:21:05;;;;;;;10.77;6.45;;;22.30;44.90;;;;;;5041688;28;20037;-40
2022/03/29 04:23:31;;;;;;;9.90;6.40;;;22.30;44.90;;;;;;5046432;28;20029;-40
2022/03/29 04:26:00;;;;;;;10.45;6.72;;;22.30;44.80;;;;;;5046357;28;20087;-40
2022/03/29 04:28:26;;;;;;;11.55;6.65;;;22.30;44.80;;;;;;5044980;28;20025;-40
2022/03/29 04:30:55;;;;;;;10.27;6.28;;;22.20;44.70;;;;;;5043057;28;20033;-41
2022/03/29 04:33:22;;;;;;;9.75;5.80;;;22.30;44.80;;;;;;5042896;28;20032;-40
2022/03/29 04:35:48;;;;;;;8.05;5.78;;;22.30;45.00;;;;;;5042574;28;20036;-41
2022/03/29 04:38:14;;;;;;;10.32;6.25;;;22.30;45.00;;;;;;5042437;28;20041;-41
2022/03/29 04:40:40;;;;;;;10.43;6.68;;;22.30;44.90;;;;;;5041198;28;20052;-44
2022/03/29 04:43:06;;;;;;;10.43;5.88;;;22.30;44.90;;;;;;5046452;28;20101;-42
2022/03/29 04:45:33;;;;;;;8.70;5.57;;;22.20;44.80;;;;;;5061688;28;20362;-41
2022/03/29 04:47:59;;;;;;;11.45;5.85;;;22.20;44.70;;;;;;5062287;28;20025;-41
2022/03/29 04:50:25;;;;;;;9.32;5.38;;;22.20;44.70;;;;;;5059195;28;20064;-42
2022/03/29 04:52:51;;;;;;;8.43;5.57;;;22.20;44.80;;;;;;5059376;28;20028;-41
2022/03/29 04:55:18;;;;;;;7.60;5.32;;;22.20;44.90;;;;;;5062508;28;20021;-41
2022/03/29 04:57:47;;;;;;;9.35;5.50;;;22.20;44.90;;;;;;5060815;28;20045;-42
2022/03/29 05:00:14;;;;;;;7.30;5.00;;;22.20;44.80;;;;;;5058338;28;20037;-40
2022/03/29 05:02:46;;;;;;;;;;;22.20;44.80;;;;;;5061965;28;20135;-41
2022/03/29 05:05:13;;;;;;;9.27;5.45;;;22.20;44.80;;;;;;5060423;28;19909;-40
2022/03/29 05:07:40;;;;;;;7.90;5.43;;;22.20;44.70;;;;;;5062226;28;20052;-40
2022/03/29 05:10:08;;;;;;;8.25;4.90;;;22.20;44.80;;;;;;5058136;28;20029;-40
2022/03/29 05:12:47;;;;;;;6.15;4.85;;;22.20;45.30;;;;;;5053534;28;20033;-40
2022/03/29 05:15:16;;;;;;;8.90;5.03;;;22.20;45.00;;;;;;5040536;28;20825;-40
2022/03/29 05:17:42;;;;;;;8.85;5.38;;;22.20;44.90;;;;;;5038026;28;20061;-41
2022/03/29 05:20:10;;;;;;;7.10;4.97;;;22.20;44.80;;;;;;5039019;28;20040;-40
2022/03/29 05:22:50;;;;;;;6.82;4.43;;;22.20;44.80;;;;;;5038666;28;20095;-41
2022/03/29 05:25:18;;;;;;;8.27;4.95;;;22.20;44.80;;;;;;5039088;28;20037;-41
2022/03/29 05:27:44;;;;;;;7.25;4.68;;;22.20;44.70;;;;;;5043209;28;21503;-41
2022/03/29 05:30:11;;;;;;;7.20;4.90;;;22.20;44.70;;;;;;5042149;28;20061;-43
2022/03/29 05:32:38;;;;;;;7.38;4.78;;;22.20;44.90;;;;;;5042774;28;20063;-41
2022/03/29 05:35:05;;;;;;;6.97;4.60;;;22.20;44.90;;;;;;5039856;28;20033;-40
2022/03/29 05:37:31;;;;;;;;;;;22.20;44.80;;;;;;5040535;28;20580;-41
2022/03/29 05:39:57;;;;;;;5.88;4.30;;;22.10;44.70;;;;;;5046808;28;19908;-41
2022/03/29 05:42:23;;;;;;;6.72;4.43;;;22.10;44.70;;;;;;5043944;28;20044;-41
2022/03/29 05:44:50;;;;;;;7.57;4.10;;;22.10;44.60;;;;;;5060554;28;20052;-41
2022/03/29 05:50:00;;;;;;;6.72;4.53;;;22.10;44.70;;;;;;5063177;28;20587;-40
2022/03/29 05:52:28;;;;;;;5.30;3.80;;;22.10;44.80;;;;;;5060618;28;20025;-41
2022/03/29 05:54:56;;;;;;;5.32;3.95;;;22.10;44.80;;;;;;5062893;28;20032;-41
2022/03/29 05:57:22;;;;;;;5.55;4.05;;;22.10;44.80;;;;;;5062639;28;20364;-42
2022/03/29 05:59:48;;;;;;;6.22;4.18;;;22.10;44.80;;;;;;5054250;28;20029;-41
2022/03/29 06:02:14;;;;;;;6.35;3.95;;;22.10;44.80;;;;;;5060242;28;20029;-41
2022/03/29 06:04:41;;;;;;;6.65;4.60;;;22.10;44.80;;;;;;5062215;28;20052;-41
2022/03/29 06:07:07;;;;;;;7.87;4.50;;;22.10;44.80;;;;;;5055444;28;20130;-42
2022/03/29 06:09:34;;;;;;;6.93;4.20;;;22.10;44.90;;;;;;5060727;28;20029;-43
2022/03/29 06:12:01;;;;;;;6.18;4.15;;;22.10;44.90;;;;;;5052820;28;20033;-42
2022/03/29 06:14:27;;;;;;;8.25;4.10;;;22.10;44.80;;;;;;5062456;28;20463;-42
2022/03/29 06:16:55;;;;;;;5.85;4.30;;;22.10;44.80;;;;;;5061024;28;20493;-42
2022/03/29 06:19:21;;;;;;;7.03;4.25;;;22.10;44.80;;;;;;5057863;28;20043;-41
2022/03/29 06:21:47;;;;;;;5.88;4.13;;;22.10;44.80;;;;;;5055354;28;20071;-41
2022/03/29 06:24:14;;;;;;;6.15;4.35;;;22.10;44.80;;;;;;5058632;28;20044;-41
2022/03/29 06:26:41;;;;;;;7.28;4.38;;;22.10;45.00;;;;;;5060282;28;20036;-42
2022/03/29 06:29:07;;;;;;;5.50;3.80;;;22.10;45.00;;;;;;5057603;28;20127;-42
2022/03/29 06:31:33;;;;;;;5.93;4.00;;;22.10;44.90;;;;;;5063806;28;20040;-42
2022/03/29 06:33:59;;;;;;;5.95;3.88;;;22.10;45.00;;;;;;5060277;28;20051;-42
2022/03/29 06:36:25;;;;;;;4.88;3.63;;;22.10;45.10;;;;;;5060998;28;20504;-41
2022/03/29 06:38:52;;;;;;;5.35;3.70;;;22.10;45.00;;;;;;5060025;28;20060;-41
2022/03/29 06:41:19;;;;;;;5.05;3.60;;;22.00;44.90;;;;;;5058569;28;20025;-41
2022/03/29 06:43:45;;;;;;;5.35;3.70;;;22.00;44.90;;;;;;5054650;28;20037;-41
2022/03/29 06:46:11;;;;;;;4.68;3.50;;;22.00;45.00;;;;;;5044559;28;20120;-41
2022/03/29 06:48:38;;;;;;;4.82;3.50;;;22.10;45.00;;;;;;5039629;28;20026;-41
2022/03/29 06:51:04;;;;;;;4.40;3.58;;;22.10;45.00;;;;;;5042437;28;20226;-42
2022/03/29 06:53:31;;;;;;;5.32;3.78;;;22.00;44.90;;;;;;5046842;28;20070;-41
2022/03/29 06:55:57;;;;;;;6.47;4.05;;;22.00;44.80;;;;;;5041294;28;20093;-41
2022/03/29 06:58:23;;;;;;;5.78;3.97;;;22.00;44.80;;;;;;5041305;28;20036;-41
2022/03/29 07:00:49;;;;;;;4.95;3.58;;;22.00;44.90;;;;;;5044701;28;20028;-42
2022/03/29 07:03:15;;;;;;;5.28;3.70;;;22.10;45.10;;;;;;5044472;28;20036;-42
2022/03/29 07:05:42;;;;;;;5.30;3.63;;;22.10;45.10;;;;;;5042051;28;20029;-42
2022/03/29 07:08:12;;;;;;;5.25;3.85;;;22.00;44.90;;;;;;5041742;28;20116;-43
2022/03/29 07:13:23;;;;;;;5.60;3.90;;;22.00;44.90;;;;;;5045610;28;20064;-42
2022/03/29 07:15:52;;;;;;;5.40;3.80;;;22.00;44.90;;;;;;5061163;28;20041;-41
2022/03/29 07:18:19;;;;;;;5.95;3.70;;;22.00;45.00;;;;;;5058618;28;20037;-42
2022/03/29 07:20:45;;;;;;;7.15;4.10;;;22.00;45.10;;;;;;5061359;28;20056;-41
2022/03/29 07:23:11;;;;;;;5.78;4.07;;;22.00;45.10;;;;;;5058366;28;20033;-42
2022/03/29 07:25:37;;;;;;;6.07;4.40;;;22.00;45.10;;;;;;5055185;28;20029;-42
2022/03/29 07:28:04;;;;;;;5.68;4.13;;;22.00;45.10;;;;;;5061788;28;20029;-42
2022/03/29 07:30:33;;;;;;;5.50;3.78;;;22.00;45.00;;;;;;5060932;28;20036;-41
2022/03/29 07:32:59;;;;;;;6.93;4.18;;;22.00;45.10;;;;;;5058210;28;20524;-42
2022/03/29 07:35:27;;;;;;;6.35;4.30;;;22.00;45.20;;;;;;5054041;28;20105;-42
2022/03/29 07:37:53;;;;;;;6.72;4.55;;;22.00;45.30;;;;;;5057265;28;20037;-42
2022/03/29 07:40:21;;;;;;;6.63;4.63;;;22.00;45.20;;;;;;5055434;28;20033;-42
2022/03/29 07:42:49;;;;;;;6.25;4.22;;;22.00;45.30;;;;;;5059619;28;20033;-42
2022/03/29 07:45:16;;;;;;;6.43;4.38;;;22.00;45.20;;;;;;5050910;28;20032;-43
2022/03/29 07:47:42;;;;;;;7.13;4.20;;;22.00;45.30;;;;;;5049308;28;20032;-42
2022/03/29 07:50:11;;;;;;;4.68;2.88;;;22.00;45.20;;;;;;5052549;28;20052;-42
2022/03/29 07:52:40;;;;;;;5.82;4.22;;;22.00;45.30;;;;;;5050901;28;20060;-42
2022/03/29 07:55:07;;;;;;;7.43;4.07;;;22.00;45.30;;;;;;5052388;28;20033;-42
2022/03/29 07:57:34;;;;;;;5.75;3.85;;;22.00;45.30;;;;;;5052333;28;20045;-42
2022/03/29 08:00:31;;;;;;;6.03;4.43;;;22.00;45.30;;;;;;5051120;28;20059;-42
2022/03/29 08:02:47;;;;;;;6.30;3.75;;;22.00;45.30;;;;;;5049444;28;20533;-41
2022/03/29 08:05:13;;;;;;;5.63;4.50;;;21.90;45.20;;;;;;5049338;28;20033;-42
2022/03/29 08:07:41;;;;;;;5.50;3.83;;;21.90;45.30;;;;;;5052518;28;20282;-42
2022/03/29 08:10:07;;;;;;;5.35;3.60;;;22.00;45.50;;;;;;5053928;28;20104;-42
2022/03/29 08:12:37;;;;;;;5.30;3.53;;;22.00;45.30;;;;;;5048990;28;20118;-42
2022/03/29 08:15:05;;;;;;;5.10;3.35;;;22.00;45.50;;;;;;5057579;28;20096;-41
2022/03/29 08:17:33;;;;;;;4.40;3.20;;;22.00;45.40;;;;;;5061654;28;20044;-41
2022/03/29 08:19:59;;;;;;;4.63;3.10;;;22.00;45.50;;;;;;5047191;28;20104;-41
2022/03/29 08:22:25;;;;;;;5.57;3.30;;;22.00;45.50;;;;;;5056606;28;20659;-41
2022/03/29 08:24:52;;;;;;;5.28;3.67;;;21.90;45.40;;;;;;5058514;28;20025;-41
2022/03/29 08:27:18;;;;;;;5.18;3.25;;;22.00;45.50;;;;;;5052941;28;20033;-41
2022/03/29 08:29:44;;;;;;;5.05;3.10;;;22.00;45.50;;;;;;5056402;28;20028;-41
2022/03/29 08:32:10;;;;;;;2.83;1.95;;;21.90;45.50;;;;;;5058260;28;20033;-42
2022/03/29 08:34:36;;;;;;;5.38;3.22;;;22.00;45.50;;;;;;5054696;28;20025;-41
2022/03/29 08:37:03;;;;;;;6.70;3.42;;;21.90;45.40;;;;;;5060930;28;20048;-42
2022/03/29 08:39:29;;;;;;;5.30;3.60;;;22.00;45.40;;;;;;5057381;28;20021;-41
2022/03/29 08:42:20;;;;;;;4.80;3.53;;;22.00;45.50;;;;;;5055355;28;20781;-42
2022/03/29 08:44:46;;;;;;;4.05;3.00;;;22.00;45.60;;;;;;5049542;28;20048;-42
2022/03/29 08:47:15;;;;;;;4.63;3.45;;;22.00;45.60;;;;;;5042863;28;20025;-42
2022/03/29 08:49:45;;;;;;;5.28;3.30;;;22.00;45.50;;;;;;5045957;28;20129;-41
2022/03/29 08:52:11;;;;;;;3.88;2.92;;;22.00;45.50;;;;;;5044835;28;20112;-41
2022/03/29 08:54:38;;;;;;;4.70;3.30;;;21.90;45.40;;;;;;5047625;28;20406;-42
2022/03/29 08:57:04;;;;;;;4.53;3.20;;;22.00;45.40;;;;;;5045372;28;20063;-42
2022/03/29 08:59:30;;;;;;;4.72;3.50;;;22.00;45.50;;;;;;5047595;28;20097;-42
2022/03/29 09:01:57;;;;;;;5.20;3.63;;;22.00;45.60;;;;;;5049327;28;20033;-42
2022/03/29 09:04:24;;;;;;;4.32;3.00;;;22.00;45.60;;;;;;5045762;28;20494;-43
2022/03/29 09:06:50;;;;;;;;;;;22.00;45.50;;;;;;5048506;28;20045;-42
2022/03/29 09:09:26;;;;;;;5.75;3.17;;;22.00;45.50;;;;;;5047301;28;19909;-42
2022/03/29 09:11:54;;;;;;;4.78;3.08;;;22.00;45.50;;;;;;5047897;28;20033;-43
2022/03/29 09:14:22;;;;;;;4.40;3.10;;;21.90;45.50;;;;;;5060281;28;20490;-41
2022/03/29 09:16:48;;;;;;;4.55;3.10;;;22.00;45.50;;;;;;5063424;28;20067;-48
2022/03/29 09:19:15;;;;;;;5.40;3.20;;;22.00;45.70;;;;;;5063811;28;20033;-41
2022/03/29 09:21:44;;;;;;;5.53;3.50;;;22.00;45.60;;;;;;5059600;28;20039;-41
2022/03/29 09:24:16;;;;;;;5.35;3.90;;;22.00;45.60;;;;;;5063080;28;20048;-42
2022/03/29 09:26:45;;;;;;;5.00;3.33;;;22.00;45.70;;;;;;5063263;28;20025;-42
2022/03/29 09:29:22;;;;;;;4.80;3.38;;;22.00;45.60;;;;;;5062343;28;20040;-42
2022/03/29 09:32:17;;;;;;;4.47;3.20;;;21.90;45.60;;;;;;5058423;28;20036;-42
2022/03/29 09:34:43;;;;;;;4.40;3.40;;;22.00;45.60;;;;;;5061612;28;20037;-42
2022/03/29 09:37:09;;;;;;;4.85;3.47;;;22.00;45.70;;;;;;5046607;28;20044;-42
2022/03/29 09:39:40;;;;;;;4.57;3.20;;;22.00;45.70;;;;;;5044938;28;20036;-44
2022/03/29 09:42:12;;;;;;;4.20;3.20;;;22.00;45.70;;;;;;5061110;28;20036;-42
2022/03/29 09:44:41;;;;;;;5.03;3.28;;;22.00;45.70;;;;;;5057479;28;20061;-42
2022/03/29 09:47:08;;;;;;;4.10;3.20;;;21.90;45.60;;;;;;5061889;28;20029;-42
2022/03/29 09:50:05;;;;;;;3.97;2.97;;;22.00;45.60;;;;;;5062842;28;20114;-42
2022/03/29 09:52:39;;;;;;;4.65;3.20;;;22.00;45.70;;;;;;5056468;28;20072;-43
2022/03/29 09:55:06;;;;;;;4.25;2.85;;;22.00;45.80;;;;;;5064467;28;20036;-42
2022/03/29 09:57:42;;;;;;;3.92;2.92;;;22.00;45.70;;;;;;5058859;28;20037;-42
2022/03/29 10:00:10;;;;;;;4.65;2.88;;;21.90;45.70;;;;;;5063903;28;20088;-42
2022/03/29 10:02:40;;;;;;;4.97;3.38;;;21.90;45.60;;;;;;5063712;28;20461;-42
2022/03/29 10:05:06;;;;;;;4.05;3.05;;;21.90;45.70;;;;;;5063025;28;20604;-42
2022/03/29 10:07:36;;;;;;;4.10;2.88;;;22.00;45.60;;;;;;5059228;28;20722;-42
2022/03/29 10:10:03;;;;;;;3.70;2.88;;;22.00;45.70;;;;;;5066668;28;20434;-43
2022/03/29 10:12:29;;;;;;;3.83;2.92;;;22.00;45.70;;;;;;5064250;28;20033;-42
2022/03/29 10:14:56;;;;;;;4.00;2.80;;;22.00;45.70;;;;;;5061020;28;20049;-43
2022/03/29 10:17:22;;;;;;;;;;;22.00;46.20;;;;;;5061847;28;20045;-42
2022/03/29 10:19:49;;;;;;;3.55;2.58;;;22.00;45.60;;;;;;5063201;28;19963;-43
2022/03/29 10:22:15;;;;;;;3.00;2.53;;;21.90;45.70;;;;;;5061311;28;20055;-42
2022/03/29 10:24:41;;;;;;;2.92;2.47;;;22.00;45.70;;;;;;5075793;28;20079;-42
2022/03/29 10:27:07;;;;;;;4.70;2.85;;;22.00;45.80;;;;;;5060962;28;20656;-43
2022/03/29 10:29:35;;;;;;;2.80;2.30;;;22.00;45.80;;;;;;5063245;28;20037;-42
2022/03/29 10:32:05;;;;;;;4.03;2.80;;;22.00;45.80;;;;;;5057496;28;20037;-44
2022/03/29 10:34:36;;;;;;;3.60;2.58;;;22.00;45.80;;;;;;5062080;28;20033;-42
2022/03/29 10:37:08;;;;;;;4.03;2.55;;;22.00;45.80;;;;;;5051109;28;20049;-42
2022/03/29 10:39:42;;;;;;;5.53;2.72;;;22.00;45.90;;;;;;5059991;28;20850;-42
2022/03/29 10:42:24;;;;;;;4.53;2.60;;;22.00;46.00;;;;;;5060754;28;20040;-41
2022/03/29 10:45:12;;;;;;;2.97;2.42;;;22.00;45.90;;;;;;5058746;28;20366;-41
2022/03/29 10:47:39;;;;;;;4.63;2.40;;;22.00;46.00;;;;;;5064450;28;20036;-42
2022/03/29 10:50:07;;;;;;;4.80;2.20;;;22.00;45.90;;;;;;5063671;28;20792;-43
2022/03/29 10:52:49;;;;;;;4.88;3.17;;;22.00;45.90;;;;;;5064227;28;20286;-46
2022/03/29 10:55:15;;;;;;;2.92;2.40;;;22.00;46.00;;;;;;5062830;28;20046;-43
2022/03/29 10:57:41;;;;;;;8.70;3.35;;;22.00;46.00;;;;;;5060383;28;20053;-45
2022/03/29 11:00:08;;;;;;;11.68;2.70;;;22.10;46.50;;;;;;5041327;28;20048;-44
2022/03/29 11:02:35;;;;;;;8.70;3.08;;;22.00;46.30;;;;;;5063757;28;20029;-42
2022/03/29 11:05:12;;;;;;;10.02;2.67;;;22.10;46.50;;;;;;5050614;28;20037;-41
2022/03/29 11:07:53;;;;;;;10.00;3.00;;;22.10;46.40;;;;;;5061396;28;20055;-42
2022/03/29 11:10:23;;;;;;;5.82;2.70;;;22.10;46.30;;;;;;5063372;28;20037;-43
2022/03/29 11:12:53;;;;;;;4.65;2.80;;;22.10;46.10;;;;;;5060593;28;20033;-41
2022/03/29 11:15:25;;;;;;;3.42;2.50;;;22.10;46.00;;;;;;5062666;28;20607;-42
2022/03/29 11:17:52;;;;;;;3.97;2.90;;;22.10;45.90;;;;;;5063526;28;20045;-42
2022/03/29 11:20:35;;;;;;;2.78;2.15;;;22.10;45.80;;;;;;5064089;28;20102;-42
2022/03/29 11:23:09;;;;;;;3.53;2.22;;;22.10;45.90;;;;;;5060189;28;20037;-42
2022/03/29 11:25:42;;;;;;;3.40;2.63;;;22.10;45.80;;;;;;5060447;28;20028;-41
2022/03/29 11:28:12;;;;;;;3.95;2.60;;;22.10;45.60;;;;;;5071280;28;20040;-42
2022/03/29 11:30:38;;;;;;;3.95;2.67;;;22.10;45.50;;;;;;5063265;28;20028;-42
2022/03/29 11:33:06;;;;;;;3.05;2.28;;;22.00;45.40;;;;;;5055795;28;20030;-42
2022/03/29 11:35:32;;;;;;;3.05;2.30;;;22.10;45.60;;;;;;5043117;28;20089;-42
2022/03/29 11:38:15;;;;;;;3.63;2.60;;;22.10;45.60;;;;;;5043716;28;20041;-41
2022/03/29 11:40:41;;;;;;;4.72;2.60;;;22.00;45.60;;;;;;5055195;28;20037;-42
2022/03/29 11:43:12;;;;;;;3.53;2.20;;;22.00;45.50;;;;;;5062830;28;20052;-42
2022/03/29 11:45:41;;;;;;;3.50;2.25;;;22.10;45.50;;;;;;5043200;28;20255;-42
2022/03/29 11:48:12;;;;;;;3.30;2.80;;;22.00;45.30;;;;;;5050105;28;20052;-42
2022/03/29 11:50:51;;;;;;;3.47;2.53;;;22.00;45.30;;;;;;5050971;28;20037;-42
2022/03/29 11:53:21;;;;;;;3.03;2.50;;;22.00;45.50;;;;;;5054241;28;20032;-42
2022/03/29 11:55:57;;;;;;;3.40;2.63;;;22.00;45.60;;;;;;5063062;28;20493;-42
2022/03/29 11:58:28;;;;;;;2.85;2.30;;;22.00;45.60;;;;;;5062704;28;20037;-42
2022/03/29 12:00:58;;;;;;;3.67;2.58;;;22.00;45.50;;;;;;5062988;28;20032;-42
2022/03/29 12:03:28;;;;;;;3.20;2.47;;;22.00;45.50;;;;;;5062553;28;20108;-42
2022/03/29 12:06:05;;;;;;;2.97;2.40;;;22.00;45.30;;;;;;5058048;28;20064;-42
2022/03/29 12:08:48;;;;;;;5.10;2.78;;;22.00;45.30;;;;;;5046883;28;20025;-42
2022/03/29 12:11:19;;;;;;;3.63;2.20;;;22.00;45.50;;;;;;5061147;28;20040;-42
2022/03/29 12:13:46;;;;;;;2.70;2.28;;;22.00;45.60;;;;;;5060531;28;20075;-42
2022/03/29 12:16:22;;;;;;;3.08;2.58;;;22.00;45.60;;;;;;5081925;28;20094;-42
2022/03/29 12:18:49;;;;;;;3.33;2.40;;;22.00;46.10;;;;;;5062575;28;20043;-41
2022/03/29 12:21:17;;;;;;;3.13;2.50;;;22.00;45.50;;;;;;5062960;28;20021;-42
2022/03/29 12:23:44;;;;;;;3.35;2.45;;;22.00;45.40;;;;;;5059761;28;20037;-42
2022/03/29 12:26:14;;;;;;;3.47;2.90;;;22.00;45.40;;;;;;5060819;28;20033;-42
2022/03/29 12:28:40;;;;;;;3.47;2.58;;;22.00;45.50;;;;;;5080103;28;20075;-42
2022/03/29 12:31:11;;;;;;;2.80;2.53;;;22.00;45.60;;;;;;5045979;28;20027;-42
2022/03/29 12:33:38;;;;;;;3.10;2.35;;;22.00;45.50;;;;;;5044556;28;20036;-42
2022/03/29 12:36:12;;;;;;;4.05;2.50;;;22.00;45.50;;;;;;5043304;28;20037;-42
2022/03/29 12:39:03;;;;;;;4.13;2.80;;;22.00;45.40;;;;;;5044887;28;20033;-42
2022/03/29 12:41:37;;;;;;;3.00;2.67;;;22.00;45.40;;;;;;5045988;28;20029;-42
2022/03/29 12:44:06;;;;;;;3.55;2.28;;;22.00;45.30;;;;;;5051170;28;20029;-42
2022/03/29 12:46:33;;;;;;;3.05;2.30;;;22.00;45.40;;;;;;5042311;28;20029;-42
2022/03/29 12:48:59;;;;;;;3.13;2.33;;;22.00;45.50;;;;;;5062143;28;20029;-42
2022/03/29 12:51:32;;;;;;;2.38;1.90;;;22.00;45.60;;;;;;5044429;28;20036;-41
2022/03/29 12:54:03;;;;;;;2.30;2.10;;;22.00;45.50;;;;;;5042318;28;20037;-42
2022/03/29 12:56:34;;;;;;;3.13;2.45;;;22.00;45.40;;;;;;5059481;28;20048;-41
2022/03/29 12:59:00;;;;;;;3.95;2.25;;;22.00;45.30;;;;;;5061237;28;20725;-42
2022/03/29 13:01:29;;;;;;;2.43;2.20;;;22.00;45.30;;;;;;5060436;28;20021;-42